createdAt,value
2023-11-26T19:50:51.240Z,1009.16
2023-11-26T19:51:51.211Z,1009.18
2023-11-26T19:52:51.100Z,1009.15
2023-11-26T19:53:51.083Z,1009.15
2023-11-26T19:54:51.061Z,1009.12
2023-11-26T19:55:50.943Z,1009.10
2023-11-26T19:56:50.883Z,1009.10
2023-11-26T19:57:50.849Z,1009.18
2023-11-26T19:58:50.794Z,1009.19
2023-11-26T19:59:53.362Z,1009.19
2023-11-26T20:00:50.749Z,1009.18
2023-11-26T20:01:50.719Z,1009.20
2023-11-26T20:02:50.720Z,1009.21
2023-11-26T20:03:50.644Z,1009.20
2023-11-26T20:04:50.496Z,1009.18
2023-11-26T20:05:50.438Z,1009.22
2023-11-26T20:06:50.457Z,1009.20
2023-11-26T20:07:50.346Z,1009.22
2023-11-26T20:08:50.294Z,1009.17
2023-11-26T20:09:50.271Z,1009.18
2023-11-26T20:10:50.208Z,1009.16
2023-11-26T20:11:50.154Z,1009.13
2023-11-26T20:12:50.139Z,1009.15
2023-11-26T20:13:50.058Z,1009.15
2023-11-26T20:14:50.013Z,1009.17
2023-11-26T20:15:49.976Z,1009.08
2023-11-26T20:16:49.917Z,1009.11
2023-11-26T20:17:50.089Z,1009.09
2023-11-26T20:18:49.852Z,1009.11
2023-11-26T20:19:49.868Z,1009.12
2023-11-26T20:20:49.732Z,1009.12
2023-11-26T20:21:49.728Z,1009.09
2023-11-26T20:22:49.685Z,1009.08
2023-11-26T20:23:49.652Z,1009.11
2023-11-26T20:24:49.670Z,1009.06
2023-11-26T20:25:49.518Z,1009.08
2023-11-26T20:26:49.457Z,1009.03
2023-11-26T20:27:49.451Z,1009.03
2023-11-26T20:28:49.364Z,1008.98
2023-11-26T20:29:49.504Z,1009.02
2023-11-26T20:30:51.584Z,1008.99
2023-11-26T20:31:49.259Z,1009.04
2023-11-26T20:33:49.260Z,1009.04
2023-11-26T20:34:49.133Z,1009.03
2023-11-26T20:35:49.042Z,1008.97
2023-11-26T20:36:49.027Z,1008.99
2023-11-26T20:37:48.977Z,1008.99
2023-11-26T20:38:48.961Z,1009.02
2023-11-26T20:39:48.934Z,1008.98
2023-11-26T20:40:48.804Z,1008.93
2023-11-26T20:41:48.850Z,1008.93
2023-11-26T20:42:48.743Z,1008.95
2023-11-26T20:43:48.682Z,1008.95
2023-11-26T20:44:48.639Z,1008.92
2023-11-26T20:50:48.761Z,1008.84
2023-11-26T20:51:48.350Z,1008.86
2023-11-26T20:52:48.259Z,1008.84
2023-11-26T20:53:48.208Z,1008.85
2023-11-26T20:54:48.234Z,1008.83
2023-11-26T20:55:48.130Z,1008.80
2023-11-26T20:56:48.069Z,1008.81
2023-11-26T20:57:48.091Z,1008.78
2023-11-26T20:58:47.973Z,1008.77
2023-11-26T20:59:47.926Z,1008.79
2023-11-26T21:00:47.915Z,1008.81
2023-11-26T21:01:47.936Z,1008.77
2023-11-26T21:02:47.855Z,1008.77
2023-11-26T21:03:47.912Z,1008.77
2023-11-26T21:04:47.715Z,1008.71
2023-11-26T21:05:47.665Z,1008.74
2023-11-26T21:06:47.693Z,1008.71
2023-11-26T21:07:47.558Z,1008.75
2023-11-26T21:08:47.512Z,1008.79
2023-11-26T21:09:47.489Z,1008.73
2023-11-26T21:10:47.444Z,1008.73
2023-11-26T21:11:47.372Z,1008.68
2023-11-26T21:12:47.366Z,1008.67
2023-11-26T21:14:30.688Z,1008.61
2023-11-26T21:15:30.618Z,1008.64
2023-11-26T21:16:30.616Z,1008.61
2023-11-26T21:17:30.549Z,1008.55
2023-11-26T21:18:30.479Z,1008.64
2023-11-26T21:19:30.437Z,1008.63
2023-11-26T21:20:30.392Z,1008.65
2023-11-26T21:21:30.336Z,1008.63
2023-11-26T21:22:30.297Z,1008.60
2023-11-26T21:24:30.202Z,1008.57
2023-11-26T21:25:30.148Z,1008.57
2023-11-26T21:26:30.169Z,1008.54
2023-11-26T21:27:30.051Z,1008.55
2023-11-26T21:28:30.005Z,1008.52
2023-11-26T21:29:29.970Z,1008.51
2023-11-26T21:30:29.921Z,1008.50
2023-11-26T21:31:29.863Z,1008.47
2023-11-26T21:32:29.887Z,1008.50
2023-11-26T21:33:29.792Z,1008.44
2023-11-26T21:34:29.880Z,1008.43
2023-11-26T21:35:29.685Z,1008.40
2023-11-26T21:36:29.624Z,1008.41
2023-11-26T21:37:29.598Z,1008.40
2023-11-26T21:38:29.540Z,1008.42
2023-11-26T21:39:29.485Z,1008.42
2023-11-26T21:40:29.432Z,1008.41
2023-11-26T21:41:29.395Z,1008.37
2023-11-26T21:42:29.355Z,1008.35
2023-11-26T21:43:29.292Z,1008.32
2023-11-26T21:44:29.241Z,1008.29
2023-11-26T21:45:29.213Z,1008.30
2023-11-26T21:46:35.773Z,1008.30
2023-11-26T21:47:29.229Z,1008.29
2023-11-26T21:48:29.049Z,1008.26
2023-11-26T21:49:29.002Z,1008.22
2023-11-26T21:50:28.955Z,1008.24
2023-11-26T21:51:28.907Z,1008.24
2023-11-26T21:52:28.877Z,1008.23
2023-11-26T21:54:12.232Z,1008.16
2023-11-26T21:55:12.202Z,1008.15
2023-11-26T21:56:12.113Z,1008.16
2023-11-26T21:57:12.069Z,1008.18
2023-11-26T21:58:12.093Z,1008.14
2023-11-26T21:59:11.965Z,1008.10
2023-11-26T22:00:11.929Z,1008.06
2023-11-26T22:01:11.940Z,1008.02
2023-11-26T22:02:11.911Z,1007.96
2023-11-26T22:03:11.888Z,1007.97
2023-11-26T22:04:11.751Z,1007.98
2023-11-26T22:05:11.679Z,1007.92
2023-11-26T22:06:11.633Z,1007.94
2023-11-26T22:07:11.637Z,1007.96
2023-11-26T22:08:11.534Z,1007.99
2023-11-26T22:09:11.486Z,1008.01
2023-11-26T22:10:11.495Z,1008.00
2023-11-26T22:11:11.400Z,1008.04
2023-11-26T22:12:11.351Z,1008.03
2023-11-26T22:13:11.354Z,1008.06
2023-11-26T22:14:11.291Z,1008.06
2023-11-26T22:15:11.198Z,1008.09
2023-11-26T22:16:11.195Z,1008.03
2023-11-26T22:17:11.160Z,1008.04
2023-11-26T22:18:11.131Z,1008.01
2023-11-26T22:19:11.047Z,1007.99
2023-11-26T22:20:10.958Z,1007.97
2023-11-26T22:21:10.920Z,1007.98
2023-11-26T22:22:10.895Z,1007.93
2023-11-26T22:23:12.235Z,1007.90
2023-11-26T22:24:10.774Z,1007.86
2023-11-26T22:25:10.745Z,1007.83
2023-11-26T22:26:10.673Z,1007.84
2023-11-26T22:27:10.621Z,1007.81
2023-11-26T22:28:10.617Z,1007.79
2023-11-26T22:29:10.526Z,1007.78
2023-11-26T22:30:12.841Z,1007.73
2023-11-26T22:31:10.469Z,1007.74
2023-11-26T22:32:10.432Z,1007.68
2023-11-26T22:33:10.351Z,1007.71
2023-11-26T22:34:10.376Z,1007.72
2023-11-26T22:35:10.234Z,1007.71
2023-11-26T22:36:10.198Z,1007.73
2023-11-26T22:37:10.176Z,1007.71
2023-11-26T22:38:10.419Z,1007.68
2023-11-26T22:39:10.066Z,1007.70
2023-11-26T22:40:10.023Z,1007.69
2023-11-26T22:41:09.955Z,1007.66
2023-11-26T22:42:09.952Z,1007.61
2023-11-26T22:43:09.920Z,1007.57
2023-11-26T22:44:09.812Z,1007.50
2023-11-26T22:45:09.755Z,1007.53
2023-11-26T22:46:09.792Z,1007.52
2023-11-26T22:47:09.685Z,1007.55
2023-11-26T22:48:09.613Z,1007.59
2023-11-26T22:49:09.579Z,1007.65
2023-11-26T22:50:09.513Z,1007.67
2023-11-26T22:51:09.466Z,1007.64
2023-11-26T22:52:09.482Z,1007.59
2023-11-26T22:53:09.370Z,1007.64
2023-11-26T22:54:09.319Z,1007.62
2023-11-26T22:55:09.332Z,1007.68
2023-11-26T22:56:09.237Z,1007.63
2023-11-26T22:57:09.178Z,1007.64
2023-11-26T22:58:09.155Z,1007.61
2023-11-26T22:59:09.079Z,1007.54
2023-11-26T23:00:09.032Z,1007.52
2023-11-26T23:01:09.054Z,1007.49
2023-11-26T23:02:09.074Z,1007.48
2023-11-26T23:03:09.150Z,1007.47
2023-11-26T23:04:08.922Z,1007.41
2023-11-26T23:05:08.791Z,1007.37
2023-11-26T23:06:08.760Z,1007.35
2023-11-26T23:07:08.781Z,1007.36
2023-11-26T23:08:08.675Z,1007.35
2023-11-26T23:09:08.609Z,1007.36
2023-11-26T23:10:08.582Z,1007.35
2023-11-26T23:11:08.502Z,1007.30
2023-11-26T23:12:08.456Z,1007.35
2023-11-26T23:13:08.444Z,1007.33
2023-11-26T23:14:08.360Z,1007.39
2023-11-26T23:15:08.307Z,1007.34
2023-11-26T23:16:08.318Z,1007.38
2023-11-26T23:17:08.234Z,1007.36
2023-11-26T23:18:08.304Z,1007.35
2023-11-26T23:19:08.142Z,1007.33
2023-11-26T23:20:08.071Z,1007.36
2023-11-26T23:21:08.022Z,1007.32
2023-11-26T23:22:08.028Z,1007.31
2023-11-26T23:23:07.925Z,1007.30
2023-11-26T23:24:07.877Z,1007.29
2023-11-26T23:26:07.776Z,1007.18
2023-11-26T23:27:07.728Z,1007.16
2023-11-26T23:28:07.765Z,1007.13
2023-11-26T23:30:07.853Z,1007.06
2023-11-26T23:31:07.551Z,1007.05
2023-11-26T23:32:07.504Z,1007.06
2023-11-26T23:33:07.548Z,1007.02
2023-11-26T23:34:07.466Z,1006.99
2023-11-26T23:35:07.339Z,1007.02
2023-11-26T23:36:07.326Z,1007.06
2023-11-26T23:37:07.274Z,1007.01
2023-11-26T23:38:07.213Z,1007.02
2023-11-26T23:39:07.143Z,1007.01
2023-11-26T23:40:07.115Z,1006.98
2023-11-26T23:41:09.302Z,1006.95
2023-11-26T23:42:07.009Z,1006.96
2023-11-26T23:43:07.006Z,1006.94
2023-11-26T23:44:06.907Z,1006.90
2023-11-26T23:45:06.874Z,1006.86
2023-11-26T23:46:06.925Z,1006.88
2023-11-26T23:47:06.795Z,1006.86
2023-11-26T23:48:06.772Z,1006.86
2023-11-26T23:49:09.287Z,1006.86
2023-11-26T23:50:06.636Z,1006.82
2023-11-26T23:51:06.570Z,1006.84
2023-11-26T23:52:06.569Z,1006.80
2023-11-26T23:53:06.476Z,1006.75
2023-11-26T23:54:06.419Z,1006.79
